Front Circassia — V7JX6 — position and weather

sailwx.info

Track history (hours):
 
Tides and Currents Weather Stations Pressure Air Temp Water Temp Dewpoint Dewpoint Depression Visibility Wind Speed Wind Dir Waves Ship Positions

Front Circassia

Last reported at 2017-Mar-11 15:30 UTC. Time now 2017-Mar-31 00:42 UTC.
Position N 01°57' E 102°16'.
Warning: this ship's position is 19 days out of date.

Length 333 m; draft 11.2 m.

Type: Tanker. MMSI: 538002584.

Date/timePositionNaut miles runAvg speedWind from/ knotsBaromVisibWave heightAir tempDewpointWater temp
2017-Mar-11 15:30N 01°57' E 102°16'1212.8
2017-Mar-11 14:33N 01°51' E 102°27'1212.3
2017-Mar-11 13:33N 01°46' E 102°38'5313.3
2017-Mar-11 09:33N 01°16' E 103°22'1414.3
2017-Mar-11 08:33N 01°12' E 103°35'1111.4
2017-Mar-11 07:33N 01°10' E 103°47'8 8.4
2017-Mar-11 06:33N 01°13' E 103°54'1 1.3
2017-Mar-11 05:33N 01°15' E 103°54'0 0.1
2017-Mar-11 04:33N 01°15' E 103°54'0 0.2
2017-Mar-11 03:30N 01°14' E 103°54'0 0.1
2017-Mar-11 02:33N 01°14' E 103°54'0 0.0
2017-Mar-11 01:33N 01°14' E 103°54'0 0.0
2017-Mar-11 00:27N 01°14' E 103°54'0 0.0
2017-Mar-10 23:33N 01°14' E 103°54'0 0.0
2017-Mar-10 22:21N 01°14' E 103°54'0 0.0
2017-Mar-10 21:33N 01°14' E 103°54'0 0.0
2017-Mar-10 20:33N 01°14' E 103°54'0 0.0
2017-Mar-10 19:33N 01°14' E 103°54'0 0.0
2017-Mar-10 18:33N 01°14' E 103°54'0 0.0
2017-Mar-10 17:30N 01°14' E 103°54'0 0.0
2017-Mar-10 16:33N 01°14' E 103°54'0 0.0
2017-Mar-10 15:30N 01°14' E 103°54'0 0.0
2017-Mar-10 14:24N 01°14' E 103°54'0 0.0
2017-Mar-10 13:33N 01°14' E 103°54'0 0.0
2017-Mar-10 12:33N 01°14' E 103°54'0 0.0
2017-Mar-10 11:33N 01°14' E 103°54'0 0.1
2017-Mar-10 10:33N 01°14' E 103°54'0 0.2
2017-Mar-10 09:33N 01°15' E 103°54'0 0.1
2017-Mar-10 08:33N 01°15' E 103°54'0 0.1
2017-Mar-10 07:33N 01°15' E 103°54'1 0.9
2017-Mar-10 06:33N 01°15' E 103°55'4 4.4
2017-Mar-10 05:33N 01°16' E 103°59'6 5.6
2017-Mar-10 04:33N 01°16' E 104°05'  
2017-Mar-05 12:32N 18°09' E 118°03'  
Track history (hours):
 
Tides and Currents Weather Stations Pressure Air Temp Water Temp Dewpoint Dewpoint Depression Visibility Wind Speed Wind Dir Waves Ship Positions

Front Circassia

Last reported at 2017-Mar-11 15:30 UTC. Time now 2017-Mar-31 00:42 UTC.
Position N 01°57' E 102°16'.
Warning: this ship's position is 19 days out of date.

Length 333 m; draft 11.2 m.

Type: Tanker. MMSI: 538002584.

Date/timePositionNaut miles runAvg speedWind from/ knotsBaromVisibWave heightAir tempDewpointWater temp
2017-Mar-11 15:30N 01°57' E 102°16'1212.8
2017-Mar-11 14:33N 01°51' E 102°27'1212.3
2017-Mar-11 13:33N 01°46' E 102°38'5313.3
2017-Mar-11 09:33N 01°16' E 103°22'1414.3
2017-Mar-11 08:33N 01°12' E 103°35'1111.4
2017-Mar-11 07:33N 01°10' E 103°47'8 8.4
2017-Mar-11 06:33N 01°13' E 103°54'1 1.3
2017-Mar-11 05:33N 01°15' E 103°54'0 0.1
2017-Mar-11 04:33N 01°15' E 103°54'0 0.2
2017-Mar-11 03:30N 01°14' E 103°54'0 0.1
2017-Mar-11 02:33N 01°14' E 103°54'0 0.0
2017-Mar-11 01:33N 01°14' E 103°54'0 0.0
2017-Mar-11 00:27N 01°14' E 103°54'0 0.0
2017-Mar-10 23:33N 01°14' E 103°54'0 0.0
2017-Mar-10 22:21N 01°14' E 103°54'0 0.0
2017-Mar-10 21:33N 01°14' E 103°54'0 0.0
2017-Mar-10 20:33N 01°14' E 103°54'0 0.0
2017-Mar-10 19:33N 01°14' E 103°54'0 0.0
2017-Mar-10 18:33N 01°14' E 103°54'0 0.0
2017-Mar-10 17:30N 01°14' E 103°54'0 0.0
2017-Mar-10 16:33N 01°14' E 103°54'0 0.0
2017-Mar-10 15:30N 01°14' E 103°54'0 0.0
2017-Mar-10 14:24N 01°14' E 103°54'0 0.0
2017-Mar-10 13:33N 01°14' E 103°54'0 0.0
2017-Mar-10 12:33N 01°14' E 103°54'0 0.0
2017-Mar-10 11:33N 01°14' E 103°54'0 0.1
2017-Mar-10 10:33N 01°14' E 103°54'0 0.2
2017-Mar-10 09:33N 01°15' E 103°54'0 0.1
2017-Mar-10 08:33N 01°15' E 103°54'0 0.1
2017-Mar-10 07:33N 01°15' E 103°54'1 0.9
2017-Mar-10 06:33N 01°15' E 103°55'4 4.4
2017-Mar-10 05:33N 01°16' E 103°59'6 5.6
2017-Mar-10 04:33N 01°16' E 104°05'  
2017-Mar-05 12:32N 18°09' E 118°03'  

Dump ship's entire track history